createdAt,value
2022-09-24T00:00:36.791Z,91.20
2022-09-24T00:01:36.857Z,124.50
2022-09-24T00:02:36.843Z,133.50
2022-09-24T00:03:36.758Z,95.40
2022-09-24T00:04:36.745Z,125.30
2022-09-24T00:05:36.730Z,93.60
2022-09-24T00:06:36.721Z,234.90
2022-09-24T00:07:36.709Z,103.30
2022-09-24T00:08:36.699Z,129.10
2022-09-24T00:09:36.684Z,132.90
2022-09-24T00:10:36.678Z,119.80
2022-09-24T00:11:36.666Z,93.60
2022-09-24T00:12:36.656Z,103.70
2022-09-24T00:13:36.865Z,106.10
2022-09-24T00:14:36.638Z,129.00
2022-09-24T00:15:36.636Z,145.70
2022-09-24T00:16:36.755Z,164.80
2022-09-24T00:17:36.688Z,135.50
2022-09-24T00:18:36.822Z,102.70
2022-09-24T00:19:36.708Z,138.30
2022-09-24T00:20:36.710Z,212.40
2022-09-24T00:21:36.588Z,112.70
2022-09-24T00:22:36.545Z,124.80
2022-09-24T00:23:36.533Z,200.20
2022-09-24T00:24:36.581Z,273.90
2022-09-24T00:25:36.510Z,152.90
2022-09-24T00:26:36.499Z,97.40
2022-09-24T00:27:36.486Z,122.20
2022-09-24T00:28:36.477Z,99.10
2022-09-24T00:29:36.486Z,131.10
2022-09-24T00:30:36.455Z,131.00
2022-09-24T00:31:36.538Z,122.00
2022-09-24T00:32:36.436Z,104.10
2022-09-24T00:33:36.421Z,139.60
2022-09-24T00:34:36.410Z,106.20
2022-09-24T00:35:36.404Z,110.90
2022-09-24T00:36:36.388Z,149.80
2022-09-24T00:37:36.374Z,117.60
2022-09-24T00:38:36.369Z,170.40
2022-09-24T00:39:36.354Z,193.10
2022-09-24T00:40:36.381Z,142.20
2022-09-24T00:41:36.337Z,221.60
2022-09-24T00:42:36.322Z,125.30
2022-09-24T00:43:36.309Z,142.60
2022-09-24T00:44:36.302Z,139.00
2022-09-24T00:45:36.321Z,124.90
2022-09-24T00:46:36.364Z,220.80
2022-09-24T00:47:36.274Z,136.40
2022-09-24T00:48:36.257Z,129.80
2022-09-24T00:49:36.246Z,147.10
2022-09-24T00:50:36.239Z,128.50
2022-09-24T00:51:36.223Z,133.30
2022-09-24T00:52:36.216Z,175.90
2022-09-24T00:53:36.201Z,180.10
2022-09-24T00:54:36.203Z,121.50
2022-09-24T00:55:36.190Z,120.20
2022-09-24T00:56:36.321Z,139.40
2022-09-24T00:57:36.159Z,122.40
2022-09-24T00:58:36.151Z,126.90
2022-09-24T00:59:36.135Z,165.40
2022-09-24T01:00:36.212Z,266.30
2022-09-24T01:01:36.216Z,140.80
2022-09-24T01:02:36.130Z,133.60
2022-09-24T01:03:36.089Z,148.10
2022-09-24T01:04:36.083Z,133.80
2022-09-24T01:05:36.066Z,125.40
2022-09-24T01:06:36.058Z,134.40
2022-09-24T01:07:36.044Z,127.30
2022-09-24T01:08:36.042Z,142.40
2022-09-24T01:09:36.026Z,170.40
2022-09-24T01:10:36.014Z,148.10
2022-09-24T01:11:36.001Z,136.70
2022-09-24T01:12:35.990Z,135.90
2022-09-24T01:13:38.929Z,145.10
2022-09-24T01:14:35.971Z,198.40
2022-09-24T01:15:35.957Z,176.80
2022-09-24T01:16:36.030Z,157.90
2022-09-24T01:17:35.961Z,136.90
2022-09-24T01:18:35.925Z,160.70
2022-09-24T01:19:35.913Z,177.70
2022-09-24T01:20:35.908Z,148.00
2022-09-24T01:21:35.891Z,129.40
2022-09-24T01:22:35.889Z,154.00
2022-09-24T01:23:35.869Z,142.80
2022-09-24T01:24:35.861Z,141.90
2022-09-24T01:25:35.848Z,227.80
2022-09-24T01:26:35.838Z,204.30
2022-09-24T01:27:35.824Z,155.00
2022-09-24T01:28:35.823Z,142.50
2022-09-24T01:29:35.803Z,175.70
2022-09-24T01:30:35.794Z,148.10
2022-09-24T01:31:35.857Z,179.80
2022-09-24T01:32:35.773Z,177.30
2022-09-24T01:33:35.781Z,175.90
2022-09-24T01:34:35.751Z,267.70
2022-09-24T01:35:35.737Z,148.40
2022-09-24T01:36:35.729Z,139.90
2022-09-24T01:37:35.715Z,169.50
2022-09-24T01:38:35.704Z,154.00
2022-09-24T01:39:35.692Z,198.70
2022-09-24T01:40:35.730Z,179.00
2022-09-24T01:41:35.675Z,159.00
2022-09-24T01:42:35.663Z,146.70
2022-09-24T01:43:35.648Z,158.80
2022-09-24T01:44:35.642Z,208.00
2022-09-24T01:45:35.626Z,178.60
2022-09-24T01:46:35.696Z,144.70
2022-09-24T01:47:35.606Z,161.10
2022-09-24T01:48:35.600Z,273.20
2022-09-24T01:49:35.604Z,147.70
2022-09-24T01:50:35.572Z,258.30
2022-09-24T01:51:35.566Z,237.30
2022-09-24T01:52:35.556Z,190.60
2022-09-24T01:53:35.549Z,187.50
2022-09-24T01:54:35.528Z,248.90
2022-09-24T01:55:35.516Z,168.00
2022-09-24T01:56:35.509Z,202.70
2022-09-24T01:57:35.492Z,183.30
2022-09-24T01:58:35.486Z,204.90
2022-09-24T01:59:35.471Z,189.80
2022-09-24T02:00:35.519Z,192.90
2022-09-24T02:01:35.510Z,387.90
2022-09-24T02:02:35.439Z,187.90
2022-09-24T02:03:35.428Z,326.70
2022-09-24T02:04:35.420Z,290.70
2022-09-24T02:05:35.440Z,200.80
2022-09-24T02:06:35.397Z,193.50
2022-09-24T02:07:35.383Z,145.30
2022-09-24T02:08:35.373Z,125.00
2022-09-24T02:09:35.359Z,134.70
2022-09-24T02:10:35.354Z,265.50
2022-09-24T02:11:35.338Z,198.50
2022-09-24T02:12:35.331Z,184.50
2022-09-24T02:13:35.316Z,123.20
2022-09-24T02:14:35.308Z,292.80
2022-09-24T02:15:35.294Z,116.90
2022-09-24T02:16:35.306Z,157.10
2022-09-24T02:17:35.274Z,127.80
2022-09-24T02:18:35.262Z,152.00
2022-09-24T02:19:35.250Z,200.40
2022-09-24T02:20:35.239Z,314.10
2022-09-24T02:21:35.255Z,144.70
2022-09-24T02:22:35.215Z,124.00
2022-09-24T02:23:35.207Z,206.20
2022-09-24T02:24:35.195Z,144.80
2022-09-24T02:25:35.188Z,116.50
2022-09-24T02:26:35.173Z,140.30
2022-09-24T02:27:35.165Z,131.30
2022-09-24T02:28:35.150Z,140.70
2022-09-24T02:29:35.141Z,125.60
2022-09-24T02:30:35.130Z,131.00
2022-09-24T02:31:35.192Z,141.90
2022-09-24T02:32:35.108Z,145.30
2022-09-24T02:33:35.097Z,166.70
2022-09-24T02:34:35.086Z,250.40
2022-09-24T02:35:35.081Z,138.20
2022-09-24T02:36:35.066Z,142.90
2022-09-24T02:37:35.079Z,107.50
2022-09-24T02:38:35.048Z,111.80
2022-09-24T02:39:35.037Z,148.00
2022-09-24T02:40:35.091Z,154.30
2022-09-24T02:41:35.011Z,193.40
2022-09-24T02:42:34.999Z,131.60
2022-09-24T02:43:34.998Z,146.80
2022-09-24T02:44:34.974Z,144.50
2022-09-24T02:45:34.965Z,147.50
2022-09-24T02:46:35.019Z,131.20
2022-09-24T02:47:34.944Z,109.10
2022-09-24T02:48:34.930Z,167.00
2022-09-24T02:49:34.930Z,246.80
2022-09-24T02:50:34.912Z,159.30
2022-09-24T02:51:34.903Z,173.60
2022-09-24T02:52:34.889Z,110.70
2022-09-24T02:53:34.907Z,126.30
2022-09-24T02:54:34.864Z,108.00
2022-09-24T02:55:34.855Z,209.80
2022-09-24T02:56:34.842Z,245.20
2022-09-24T02:57:34.836Z,200.80
2022-09-24T02:58:34.820Z,100.40
2022-09-24T02:59:34.819Z,132.00
2022-09-24T03:00:34.801Z,201.60
2022-09-24T03:01:35.284Z,99.30
2022-09-24T03:02:35.220Z,95.20
2022-09-24T03:03:34.768Z,95.50
2022-09-24T03:04:34.755Z,119.00
2022-09-24T03:05:34.808Z,114.60
2022-09-24T03:06:34.745Z,106.80
2022-09-24T03:07:34.724Z,143.60
2022-09-24T03:08:34.710Z,95.00
2022-09-24T03:09:34.810Z,111.70
2022-09-24T03:15:19.594Z,90.50
2022-09-24T03:16:19.711Z,91.50
2022-09-24T03:17:19.577Z,146.10
2022-09-24T03:18:19.563Z,108.80
2022-09-24T03:19:19.551Z,92.80
2022-09-24T03:20:19.539Z,157.00
2022-09-24T03:21:19.531Z,188.90
2022-09-24T03:22:19.518Z,100.30
2022-09-24T03:23:19.506Z,87.50
2022-09-24T03:24:19.495Z,104.90
2022-09-24T03:25:19.511Z,115.40
2022-09-24T03:26:19.474Z,127.00
2022-09-24T03:27:19.464Z,72.00
2022-09-24T03:28:19.451Z,111.70
2022-09-24T03:29:19.440Z,126.00
2022-09-24T03:30:19.433Z,125.90
2022-09-24T03:31:19.484Z,109.30
2022-09-24T03:32:19.406Z,85.10
2022-09-24T03:33:19.398Z,103.40
2022-09-24T03:34:19.386Z,100.00
2022-09-24T03:35:19.377Z,112.80
2022-09-24T03:36:19.362Z,94.20
2022-09-24T03:37:19.356Z,95.00
2022-09-24T03:38:19.341Z,96.80
2022-09-24T03:39:19.330Z,162.60
2022-09-24T03:40:19.348Z,81.30
2022-09-24T03:41:19.332Z,81.90
2022-09-24T03:42:19.296Z,82.20
2022-09-24T03:43:19.287Z,103.90
2022-09-24T03:44:19.273Z,103.80
2022-09-24T03:45:19.264Z,68.30
2022-09-24T03:46:19.486Z,89.80
2022-09-24T03:47:19.242Z,84.20
2022-09-24T03:48:19.228Z,89.70
2022-09-24T03:49:19.220Z,68.10
2022-09-24T03:50:19.207Z,99.80
2022-09-24T03:51:19.257Z,105.00
2022-09-24T03:52:19.185Z,83.20
2022-09-24T03:53:19.176Z,76.10
2022-09-24T03:54:19.161Z,86.00
2022-09-24T03:55:19.154Z,77.90
2022-09-24T03:56:19.142Z,162.20
2022-09-24T03:57:19.158Z,137.50
2022-09-24T03:58:19.119Z,89.50
2022-09-24T03:59:19.110Z,101.60
2022-09-24T04:00:19.099Z,124.90
2022-09-24T04:01:19.150Z,101.70
2022-09-24T04:02:19.076Z,100.20
2022-09-24T04:03:19.152Z,123.90
2022-09-24T04:04:19.054Z,104.00
2022-09-24T04:05:19.046Z,87.00
2022-09-24T04:06:24.753Z,126.00
2022-09-24T04:07:19.020Z,150.50
2022-09-24T04:08:19.015Z,85.40
2022-09-24T04:09:18.999Z,80.00
2022-09-24T04:10:18.986Z,80.40
2022-09-24T04:11:18.976Z,94.40
2022-09-24T04:12:18.964Z,117.80
2022-09-24T04:13:18.978Z,119.50
2022-09-24T04:14:18.942Z,85.20
2022-09-24T04:15:18.934Z,85.00
2022-09-24T04:16:19.004Z,185.20
2022-09-24T04:17:18.910Z,137.60
2022-09-24T04:18:18.900Z,148.60
2022-09-24T04:19:18.894Z,185.20
2022-09-24T04:20:18.876Z,78.00
2022-09-24T04:21:18.870Z,90.40
2022-09-24T04:22:18.854Z,110.30
2022-09-24T04:23:18.850Z,92.60
2022-09-24T04:24:18.832Z,140.70
2022-09-24T04:25:18.831Z,99.70
2022-09-24T04:26:18.812Z,157.40
2022-09-24T04:27:18.801Z,97.00
2022-09-24T04:28:18.789Z,105.50
2022-09-24T04:29:18.809Z,91.90
2022-09-24T04:30:18.766Z,164.80
2022-09-24T04:31:18.792Z,96.20
2022-09-24T04:32:18.745Z,109.80
2022-09-24T04:33:18.734Z,144.30
2022-09-24T04:34:18.723Z,137.20
2022-09-24T04:35:18.713Z,132.30
2022-09-24T04:36:18.700Z,118.60
2022-09-24T04:37:18.690Z,116.40
2022-09-24T04:38:18.677Z,93.90
2022-09-24T04:39:18.669Z,121.30
2022-09-24T04:40:18.682Z,173.70
2022-09-24T04:41:18.654Z,100.10
2022-09-24T04:42:18.636Z,116.10
2022-09-24T04:43:18.624Z,122.30
2022-09-24T04:44:18.612Z,135.10
2022-09-24T04:45:18.626Z,107.40
2022-09-24T04:46:18.703Z,140.90
2022-09-24T04:47:18.593Z,154.90
2022-09-24T04:48:18.571Z,109.90
2022-09-24T04:49:18.559Z,149.10
2022-09-24T04:50:18.545Z,159.20
2022-09-24T04:51:18.536Z,188.40
2022-09-24T04:52:18.523Z,150.40
2022-09-24T04:53:18.515Z,165.80
2022-09-24T04:54:18.502Z,213.20
2022-09-24T04:55:18.493Z,174.80
2022-09-24T04:56:18.479Z,138.30
2022-09-24T04:57:18.475Z,112.40
2022-09-24T04:58:18.456Z,148.60
2022-09-24T04:59:18.447Z,141.60
2022-09-24T05:00:18.546Z,208.40
2022-09-24T05:01:18.530Z,134.20
2022-09-24T05:02:18.523Z,177.70
2022-09-24T05:03:18.432Z,138.80
2022-09-24T05:04:18.394Z,217.80
2022-09-24T05:05:18.385Z,142.30
2022-09-24T05:06:18.370Z,179.10
2022-09-24T05:07:18.359Z,129.00
2022-09-24T05:08:18.346Z,120.60
2022-09-24T05:09:18.624Z,281.50
2022-09-24T05:10:18.327Z,126.90
2022-09-24T05:11:18.324Z,178.60
2022-09-24T05:12:18.304Z,135.50
2022-09-24T05:13:18.291Z,126.60
2022-09-24T05:14:18.280Z,152.40
2022-09-24T05:15:18.270Z,153.20
2022-09-24T05:16:18.385Z,165.40
2022-09-24T05:17:18.274Z,163.10
2022-09-24T05:18:18.239Z,145.40
2022-09-24T05:19:18.227Z,152.90
2022-09-24T05:20:18.216Z,215.00
2022-09-24T05:21:18.208Z,160.30
2022-09-24T05:22:18.195Z,258.20
2022-09-24T05:23:18.183Z,154.10
2022-09-24T05:24:18.176Z,146.00
2022-09-24T05:25:18.163Z,313.10
2022-09-24T05:26:18.151Z,138.40
2022-09-24T05:27:18.139Z,251.50
2022-09-24T05:28:18.130Z,267.60
2022-09-24T05:29:18.123Z,199.50
2022-09-24T05:30:18.123Z,159.10
2022-09-24T05:31:18.145Z,179.60
2022-09-24T05:32:18.084Z,145.10
2022-09-24T05:33:18.096Z,250.70
2022-09-24T05:34:18.066Z,168.50
2022-09-24T05:35:18.049Z,254.80
2022-09-24T05:36:18.040Z,247.60
2022-09-24T05:37:18.029Z,230.50
2022-09-24T05:38:18.017Z,171.60
2022-09-24T05:39:18.007Z,151.40
2022-09-24T05:40:18.059Z,299.00
2022-09-24T05:41:17.983Z,271.10
2022-09-24T05:42:17.974Z,225.20
2022-09-24T05:43:17.963Z,177.60
2022-09-24T05:44:17.951Z,162.40
2022-09-24T05:45:17.943Z,319.50
2022-09-24T05:46:17.986Z,196.50
2022-09-24T05:47:17.920Z,245.30
2022-09-24T05:48:17.910Z,288.80
2022-09-24T05:49:18.002Z,231.00
2022-09-24T05:50:17.884Z,189.50
2022-09-24T05:51:17.872Z,159.60
2022-09-24T05:52:17.867Z,202.60
2022-09-24T05:53:17.852Z,187.50
2022-09-24T05:54:17.845Z,187.80
2022-09-24T05:55:17.832Z,191.80
2022-09-24T05:56:17.820Z,204.90
2022-09-24T05:57:17.807Z,226.70
2022-09-24T05:58:18.048Z,162.70
2022-09-24T05:59:17.784Z,173.90
2022-09-24T06:00:17.775Z,222.20
2022-09-24T06:01:17.760Z,195.90
2022-09-24T06:02:17.847Z,255.20
2022-09-24T06:03:17.785Z,282.40
2022-09-24T06:04:17.730Z,249.40
2022-09-24T06:05:17.749Z,188.50
2022-09-24T06:06:17.708Z,221.60
2022-09-24T06:07:17.697Z,229.80
2022-09-24T06:08:17.685Z,238.00
2022-09-24T06:09:17.675Z,181.60
2022-09-24T06:10:17.664Z,498.50
2022-09-24T06:11:17.651Z,301.70
2022-09-24T06:12:17.642Z,300.70
2022-09-24T06:13:17.632Z,186.40
2022-09-24T06:14:17.619Z,322.60
2022-09-24T06:15:17.607Z,255.70
2022-09-24T06:16:17.628Z,182.00
2022-09-24T06:17:17.603Z,302.80
2022-09-24T06:18:17.580Z,186.80
2022-09-24T06:19:17.563Z,180.00
2022-09-24T06:20:17.556Z,223.00
2022-09-24T06:21:17.564Z,271.10
2022-09-24T06:22:17.529Z,186.10
2022-09-24T06:23:17.518Z,211.10
2022-09-24T06:24:17.507Z,183.50
2022-09-24T06:25:17.494Z,217.40
2022-09-24T06:26:17.494Z,224.20
2022-09-24T06:27:17.487Z,296.50
2022-09-24T06:28:17.469Z,180.10
2022-09-24T06:29:17.454Z,187.50
2022-09-24T06:30:17.442Z,186.70
2022-09-24T06:31:17.491Z,251.20
2022-09-24T06:32:17.419Z,214.40
2022-09-24T06:33:17.408Z,211.90
2022-09-24T06:34:17.396Z,249.40
2022-09-24T06:35:17.384Z,204.40
2022-09-24T06:36:17.373Z,208.90
2022-09-24T06:37:17.386Z,458.20
2022-09-24T06:38:17.373Z,217.30
2022-09-24T06:39:17.340Z,193.40
2022-09-24T06:40:17.431Z,295.60
2022-09-24T06:41:17.318Z,226.00
2022-09-24T06:42:17.310Z,185.90
2022-09-24T06:43:17.321Z,351.80
2022-09-24T06:44:17.285Z,193.90
2022-09-24T06:45:17.270Z,182.60
2022-09-24T06:46:17.275Z,308.10
2022-09-24T06:47:17.253Z,193.50
2022-09-24T06:48:17.242Z,200.60
2022-09-24T06:49:17.231Z,238.80
2022-09-24T06:50:17.221Z,194.10
2022-09-24T06:51:17.205Z,219.80
2022-09-24T06:52:17.194Z,298.50
2022-09-24T06:53:17.208Z,179.70
2022-09-24T06:54:17.191Z,221.80
2022-09-24T06:55:17.163Z,236.40
2022-09-24T06:56:17.151Z,221.40
2022-09-24T06:57:17.144Z,204.10
2022-09-24T06:58:17.135Z,231.40
2022-09-24T06:59:17.276Z,205.80
2022-09-24T07:00:17.118Z,207.90
2022-09-24T07:01:17.236Z,154.70
2022-09-24T07:02:17.171Z,154.10
2022-09-24T07:03:17.082Z,394.20
2022-09-24T07:04:17.065Z,359.60
2022-09-24T07:05:17.050Z,191.10
2022-09-24T07:06:17.042Z,188.50
2022-09-24T07:07:17.030Z,279.30
2022-09-24T07:08:17.018Z,177.70
2022-09-24T07:09:17.031Z,306.40
2022-09-24T07:10:16.995Z,195.50
2022-09-24T07:11:16.985Z,244.50
2022-09-24T07:12:16.976Z,194.00
2022-09-24T07:13:16.985Z,178.80
2022-09-24T07:14:16.965Z,192.80
2022-09-24T07:15:16.944Z,196.80
2022-09-24T07:16:17.116Z,287.90
2022-09-24T07:17:16.918Z,268.70
2022-09-24T07:18:16.911Z,173.50
2022-09-24T07:19:16.896Z,185.70
2022-09-24T07:20:16.890Z,186.10
2022-09-24T07:21:16.876Z,241.40
2022-09-24T07:22:16.869Z,198.20
2022-09-24T07:23:16.855Z,301.60
2022-09-24T07:24:16.845Z,178.70
2022-09-24T07:25:17.115Z,202.40
2022-09-24T07:26:16.824Z,426.40
2022-09-24T07:27:16.875Z,216.90
2022-09-24T07:28:16.905Z,258.50
2022-09-24T07:29:16.985Z,305.30
2022-09-24T07:30:17.050Z,186.40
2022-09-24T07:31:16.961Z,206.90
2022-09-24T07:32:16.913Z,261.90
2022-09-24T07:33:16.754Z,195.40
2022-09-24T07:34:16.740Z,213.30
2022-09-24T07:35:16.730Z,297.40
2022-09-24T07:36:16.720Z,327.30
2022-09-24T07:37:16.709Z,194.90
2022-09-24T07:38:16.703Z,287.60
2022-09-24T07:39:16.683Z,217.50
2022-09-24T07:40:16.753Z,162.90
2022-09-24T07:41:16.684Z,234.70
2022-09-24T07:42:16.672Z,253.30
2022-09-24T07:43:16.649Z,186.10
2022-09-24T07:44:16.644Z,233.80
2022-09-24T07:45:16.618Z,190.30
2022-09-24T07:46:16.680Z,255.80
2022-09-24T07:47:16.592Z,272.70
2022-09-24T07:48:16.581Z,299.80
2022-09-24T07:49:16.571Z,180.30
2022-09-24T07:50:16.559Z,201.90
2022-09-24T07:51:16.548Z,209.10
2022-09-24T07:52:16.540Z,253.30
2022-09-24T07:53:16.529Z,182.10
2022-09-24T07:54:17.480Z,168.90
2022-09-24T07:55:16.504Z,178.30
2022-09-24T07:56:16.494Z,173.80
2022-09-24T07:57:16.508Z,282.10
2022-09-24T07:58:16.566Z,263.20
2022-09-24T07:59:16.458Z,187.50
2022-09-24T08:00:16.449Z,176.00
2022-09-24T08:01:16.471Z,204.30
2022-09-24T08:02:16.426Z,165.00
2022-09-24T08:03:16.416Z,243.10
2022-09-24T08:04:16.568Z,215.20
2022-09-24T08:05:16.395Z,396.30
2022-09-24T08:06:16.382Z,351.90
2022-09-24T08:07:16.373Z,204.80
2022-09-24T08:08:16.363Z,272.40
2022-09-24T08:09:16.352Z,175.40
2022-09-24T08:10:16.340Z,170.40
2022-09-24T08:11:16.330Z,231.80
2022-09-24T08:12:16.320Z,216.50
2022-09-24T08:13:16.330Z,190.30
2022-09-24T08:14:16.295Z,209.60
2022-09-24T08:15:16.286Z,204.90
2022-09-24T08:16:16.342Z,195.80
2022-09-24T08:17:16.262Z,180.60
2022-09-24T08:18:16.261Z,150.50
2022-09-24T08:19:16.240Z,320.90
2022-09-24T08:20:16.230Z,170.70
2022-09-24T08:21:16.217Z,385.20
2022-09-24T08:22:16.210Z,242.20
2022-09-24T08:23:16.196Z,252.00
2022-09-24T08:24:16.189Z,215.90
2022-09-24T08:25:16.179Z,147.00
2022-09-24T08:26:16.172Z,222.60
2022-09-24T08:27:17.428Z,239.10
2022-09-24T08:28:16.143Z,202.30
2022-09-24T08:29:16.456Z,267.40
2022-09-24T08:30:16.122Z,179.70
2022-09-24T08:31:16.178Z,179.70
2022-09-24T08:32:16.099Z,216.60
2022-09-24T08:33:16.093Z,138.80
2022-09-24T08:34:16.078Z,177.50
2022-09-24T08:35:16.067Z,125.60
2022-09-24T08:36:16.056Z,124.70
2022-09-24T08:37:16.044Z,111.30
2022-09-24T08:38:16.040Z,117.60
2022-09-24T08:39:16.021Z,127.30
2022-09-24T08:40:16.106Z,167.50
2022-09-24T08:41:16.001Z,120.40
2022-09-24T08:42:15.988Z,109.00
2022-09-24T08:43:15.979Z,123.00
2022-09-24T08:44:15.968Z,104.30
2022-09-24T08:45:15.980Z,80.40
2022-09-24T08:46:16.000Z,97.40
2022-09-24T08:47:15.934Z,120.80
2022-09-24T08:48:15.925Z,90.10
2022-09-24T08:49:15.911Z,90.60
2022-09-24T08:50:15.903Z,132.00
2022-09-24T08:51:15.894Z,82.40
2022-09-24T08:52:15.885Z,93.60
2022-09-24T08:53:15.870Z,125.30
2022-09-24T08:54:15.858Z,85.70
2022-09-24T08:55:15.847Z,81.70
2022-09-24T08:56:15.837Z,90.10
2022-09-24T08:57:15.828Z,76.20
2022-09-24T08:58:15.814Z,91.30
2022-09-24T08:59:15.806Z,76.40
2022-09-24T09:00:15.809Z,77.00
2022-09-24T09:01:15.867Z,79.00
2022-09-24T09:02:15.847Z,107.20
2022-09-24T09:03:15.880Z,109.60
2022-09-24T09:04:15.763Z,103.20
2022-09-24T09:05:15.743Z,95.60
2022-09-24T09:06:15.725Z,78.50
2022-09-24T09:07:15.719Z,61.60
2022-09-24T09:08:41.387Z,58.20
2022-09-24T09:09:15.692Z,149.20
2022-09-24T09:10:15.686Z,63.90
2022-09-24T09:11:15.672Z,126.80
2022-09-24T09:12:15.663Z,68.30
2022-09-24T09:13:15.658Z,93.90
2022-09-24T09:14:15.647Z,56.80
2022-09-24T09:15:15.634Z,53.60
2022-09-24T09:16:15.690Z,63.10
2022-09-24T09:17:15.629Z,63.50
2022-09-24T09:18:15.595Z,63.10
2022-09-24T09:19:15.590Z,54.20
2022-09-24T09:20:15.576Z,50.50
2022-09-24T09:21:15.562Z,73.40
2022-09-24T09:22:15.553Z,63.20
2022-09-24T09:23:15.540Z,61.30
2022-09-24T09:24:15.530Z,72.50
2022-09-24T09:25:15.515Z,56.30
2022-09-24T09:26:15.509Z,48.30
2022-09-24T09:27:15.516Z,52.00
2022-09-24T09:28:15.638Z,60.20
2022-09-24T09:29:15.475Z,59.80
2022-09-24T09:30:15.460Z,54.70
2022-09-24T09:31:15.508Z,69.80
2022-09-24T09:32:15.443Z,52.00
2022-09-24T09:33:15.451Z,63.00
2022-09-24T09:34:15.418Z,46.10
2022-09-24T09:35:15.415Z,61.40
2022-09-24T09:36:15.397Z,40.30
2022-09-24T09:37:15.404Z,41.70
2022-09-24T09:38:15.377Z,39.10
2022-09-24T09:39:15.366Z,35.60
2022-09-24T09:40:15.432Z,34.90
2022-09-24T09:41:15.341Z,33.30
2022-09-24T09:42:15.329Z,41.20
2022-09-24T09:43:15.317Z,35.80
2022-09-24T09:44:15.306Z,32.10
2022-09-24T09:45:15.303Z,34.20
2022-09-24T09:46:15.362Z,39.40
2022-09-24T09:47:15.275Z,36.20
2022-09-24T09:48:15.261Z,38.30
2022-09-24T09:49:15.275Z,42.00
2022-09-24T09:50:15.353Z,33.10
2022-09-24T09:51:18.717Z,31.60
2022-09-24T09:52:16.240Z,39.80
2022-09-24T09:53:15.220Z,42.50
2022-09-24T09:54:15.195Z,48.90
2022-09-24T09:55:15.184Z,73.80
2022-09-24T09:56:15.172Z,40.20
2022-09-24T09:57:15.162Z,38.70
2022-09-24T09:58:15.187Z,38.10
2022-09-24T09:59:15.141Z,41.50
2022-09-24T10:00:15.197Z,36.10
2022-09-24T10:01:15.117Z,40.00
2022-09-24T10:02:15.220Z,37.70
2022-09-24T10:03:15.183Z,40.40
2022-09-24T10:04:15.084Z,36.40
2022-09-24T10:05:18.701Z,46.40
2022-09-24T10:06:15.060Z,45.40
2022-09-24T10:07:15.053Z,37.90
2022-09-24T10:08:15.041Z,36.20
2022-09-24T10:09:15.028Z,47.30
2022-09-24T10:10:15.130Z,55.50
2022-09-24T10:11:15.008Z,41.20
2022-09-24T10:12:14.995Z,58.30
2022-09-24T10:13:14.984Z,44.20
2022-09-24T10:14:14.973Z,36.30
2022-09-24T10:15:14.987Z,40.40
2022-09-24T10:16:15.023Z,48.20
2022-09-24T10:17:14.962Z,45.50
2022-09-24T10:18:14.933Z,44.00
2022-09-24T10:19:14.923Z,53.90
2022-09-24T10:20:15.059Z,59.90
2022-09-24T10:21:14.923Z,53.80
2022-09-24T10:22:14.893Z,54.60
2022-09-24T10:23:14.877Z,45.90
2022-09-24T10:24:14.866Z,41.70
2022-09-24T10:25:14.857Z,40.20
2022-09-24T10:26:14.846Z,36.10
2022-09-24T10:27:14.837Z,41.10
2022-09-24T10:28:14.824Z,41.10
2022-09-24T10:29:14.815Z,39.40
2022-09-24T10:30:14.903Z,44.70
2022-09-24T10:31:14.854Z,53.30
2022-09-24T10:32:14.782Z,56.00
2022-09-24T10:33:14.771Z,46.80
2022-09-24T10:34:14.759Z,46.30
2022-09-24T10:35:14.752Z,45.10
2022-09-24T10:36:14.739Z,41.20
2022-09-24T10:37:14.767Z,47.20
2022-09-24T10:38:14.716Z,63.60
2022-09-24T10:39:14.708Z,51.30
2022-09-24T10:40:14.866Z,43.30
2022-09-24T10:41:14.691Z,43.30
2022-09-24T10:42:14.675Z,40.10
2022-09-24T10:43:14.664Z,37.20
2022-09-24T10:44:14.653Z,62.20
2022-09-24T10:45:14.639Z,33.30
2022-09-24T10:46:14.658Z,38.00
2022-09-24T10:47:14.619Z,47.30
2022-09-24T10:48:14.602Z,38.70
2022-09-24T10:49:14.594Z,46.60
2022-09-24T10:50:14.579Z,54.70
2022-09-24T10:51:14.578Z,33.60
2022-09-24T10:52:14.557Z,32.20
2022-09-24T10:53:14.599Z,37.20
2022-09-24T10:54:14.543Z,29.60
2022-09-24T10:55:14.528Z,34.10
2022-09-24T10:56:14.517Z,34.10
2022-09-24T10:57:14.505Z,32.10
2022-09-24T10:58:14.493Z,31.50
2022-09-24T10:59:14.487Z,29.60
2022-09-24T11:00:14.470Z,31.50
2022-09-24T11:01:14.462Z,28.80
2022-09-24T11:02:14.513Z,28.40
2022-09-24T11:03:14.501Z,26.10
2022-09-24T11:04:14.428Z,27.20
2022-09-24T11:05:14.418Z,25.00
2022-09-24T11:06:14.449Z,28.70
2022-09-24T11:07:14.406Z,26.20
2022-09-24T11:08:14.382Z,27.80
2022-09-24T11:09:14.396Z,25.90
2022-09-24T11:10:14.399Z,27.20
2022-09-24T11:11:14.352Z,27.40
2022-09-24T11:12:14.339Z,31.60
2022-09-24T11:13:14.330Z,29.20
2022-09-24T11:14:14.317Z,31.10
2022-09-24T11:15:14.330Z,30.40
2022-09-24T11:16:14.430Z,29.60
2022-09-24T11:17:14.288Z,33.20
2022-09-24T11:18:14.276Z,30.20
2022-09-24T11:19:14.264Z,31.50
2022-09-24T11:20:14.253Z,32.00
2022-09-24T11:21:14.244Z,31.10
2022-09-24T11:22:14.230Z,35.60
2022-09-24T11:23:14.244Z,35.40
2022-09-24T11:24:14.206Z,31.30
2022-09-24T11:25:14.221Z,32.80
2022-09-24T11:26:14.186Z,33.90
2022-09-24T11:27:14.175Z,31.70
2022-09-24T11:28:14.165Z,38.50
2022-09-24T11:29:14.161Z,35.80
2022-09-24T11:30:14.146Z,34.20
2022-09-24T11:31:14.229Z,35.60
2022-09-24T11:32:14.137Z,36.20
2022-09-24T11:33:14.113Z,33.70
2022-09-24T11:34:14.103Z,37.30
2022-09-24T11:35:14.091Z,39.30
2022-09-24T11:36:14.080Z,41.20
2022-09-24T11:37:14.071Z,41.10
2022-09-24T11:38:14.057Z,41.40
2022-09-24T11:39:14.048Z,49.20
2022-09-24T11:40:14.103Z,51.50
2022-09-24T11:41:14.054Z,40.80
2022-09-24T11:42:14.013Z,44.70
2022-09-24T11:43:14.003Z,44.20
2022-09-24T11:44:13.991Z,46.00
2022-09-24T11:45:13.982Z,41.90
2022-09-24T11:46:14.020Z,49.90
2022-09-24T11:47:13.961Z,44.90
2022-09-24T11:48:13.948Z,39.10
2022-09-24T11:49:13.939Z,42.30
2022-09-24T11:50:13.924Z,42.60
2022-09-24T11:51:13.921Z,40.60
2022-09-24T11:52:13.902Z,59.20
2022-09-24T11:53:13.894Z,56.70
2022-09-24T11:54:13.893Z,50.70
2022-09-24T11:55:13.896Z,54.30
2022-09-24T11:56:13.882Z,42.80
2022-09-24T11:57:13.872Z,43.80
2022-09-24T11:58:13.835Z,40.10
2022-09-24T11:59:13.826Z,42.70
2022-09-24T12:00:13.835Z,45.00
2022-09-24T12:01:13.802Z,49.10
2022-09-24T12:02:13.941Z,47.10
2022-09-24T12:03:13.885Z,49.70
2022-09-24T12:04:13.770Z,45.10
2022-09-24T12:05:13.759Z,42.40
2022-09-24T12:06:13.754Z,58.00
2022-09-24T12:07:13.747Z,42.90
2022-09-24T12:08:13.745Z,46.10
2022-09-24T12:09:13.716Z,45.00
2022-09-24T12:10:13.705Z,46.10
2022-09-24T12:11:13.702Z,42.90
2022-09-24T12:12:13.681Z,44.80
2022-09-24T12:13:13.694Z,41.70
2022-09-24T12:14:13.672Z,42.70
2022-09-24T12:15:13.653Z,50.50
2022-09-24T12:16:13.783Z,45.90
2022-09-24T12:17:13.631Z,41.20
2022-09-24T12:18:13.620Z,41.10
2022-09-24T12:19:13.608Z,41.10
2022-09-24T12:20:13.595Z,40.20
2022-09-24T12:21:13.594Z,41.90
2022-09-24T12:22:13.583Z,40.40
2022-09-24T12:23:13.567Z,40.80
2022-09-24T12:24:13.745Z,37.50
2022-09-24T12:25:13.541Z,36.20
2022-09-24T12:26:13.527Z,35.70
2022-09-24T12:27:13.520Z,35.70
2022-09-24T12:28:13.506Z,34.40
2022-09-24T12:29:13.520Z,37.60
2022-09-24T12:30:13.487Z,32.90
2022-09-24T12:31:13.542Z,34.60
2022-09-24T12:32:13.461Z,35.80
2022-09-24T12:33:13.452Z,35.20
2022-09-24T12:34:13.447Z,34.60
2022-09-24T12:35:13.436Z,32.20
2022-09-24T12:36:13.428Z,31.70
2022-09-24T12:37:13.441Z,32.50
2022-09-24T12:38:13.406Z,32.10
2022-09-24T12:39:13.392Z,32.00
2022-09-24T12:40:13.422Z,34.50
2022-09-24T12:41:13.365Z,33.80
2022-09-24T12:42:13.354Z,32.00